createdAt,value
2018-11-10T00:00:57.528Z,10.53
2018-11-10T00:03:26.216Z,12.30
2018-11-10T00:05:54.866Z,11.53
2018-11-10T00:08:23.581Z,11.30
2018-11-10T00:10:52.217Z,12.37
2018-11-10T00:13:20.899Z,11.63
2018-11-10T00:15:49.552Z,11.53
2018-11-10T00:18:18.211Z,11.00
2018-11-10T00:20:46.865Z,10.80
2018-11-10T00:23:15.546Z,11.67
2018-11-10T00:25:44.180Z,11.53
2018-11-10T00:28:12.833Z,11.90
2018-11-10T00:30:41.518Z,12.20
2018-11-10T00:33:10.303Z,11.53
2018-11-10T00:35:38.935Z,11.87
2018-11-10T00:38:07.650Z,11.43
2018-11-10T00:40:36.340Z,12.77
2018-11-10T00:43:05.118Z,11.40
2018-11-10T00:45:33.879Z,12.63
2018-11-10T00:48:02.535Z,11.70
2018-11-10T00:50:31.185Z,12.57
2018-11-10T00:52:59.855Z,13.80
2018-11-10T00:55:28.479Z,13.10
2018-11-10T00:57:57.186Z,13.20
2018-11-10T01:00:25.791Z,13.57
2018-11-10T01:02:54.522Z,13.20
2018-11-10T01:05:23.187Z,12.40
2018-11-10T01:07:52.344Z,13.93
2018-11-10T01:10:20.952Z,12.33
2018-11-10T01:12:49.660Z,13.63
2018-11-10T01:15:18.303Z,13.07
2018-11-10T01:17:46.958Z,12.33
2018-11-10T01:20:15.623Z,12.30
2018-11-10T01:22:44.271Z,13.20
2018-11-10T01:25:12.916Z,12.83
2018-11-10T01:27:41.610Z,11.93
2018-11-10T01:30:13.718Z,13.77
2018-11-10T01:32:43.025Z,11.80
2018-11-10T01:35:11.753Z,12.47
2018-11-10T01:37:40.370Z,13.40
2018-11-10T01:40:10.840Z,12.43
2018-11-10T01:42:39.512Z,13.40
2018-11-10T01:45:10.571Z,12.53
2018-11-10T01:47:39.199Z,12.40
2018-11-10T01:50:09.976Z,12.90
2018-11-10T01:52:38.650Z,13.87
2018-11-10T01:55:07.869Z,11.60
2018-11-10T01:57:36.494Z,13.70
2018-11-10T02:00:08.919Z,12.40
2018-11-10T02:02:37.624Z,12.10
2018-11-10T02:05:06.455Z,13.03
2018-11-10T02:07:35.101Z,12.40
2018-11-10T02:10:03.875Z,11.97
2018-11-10T02:12:32.538Z,11.67
2018-11-10T02:15:01.156Z,11.07
2018-11-10T02:17:29.800Z,12.17
2018-11-10T02:19:58.491Z,10.73
2018-11-10T02:22:27.223Z,10.50
2018-11-10T02:24:55.889Z,10.13
2018-11-10T02:27:25.103Z,10.60
2018-11-10T02:29:54.848Z,10.60
2018-11-10T02:32:23.544Z,10.33
2018-11-10T02:34:52.862Z,9.00
2018-11-10T02:37:21.689Z,10.77
2018-11-10T02:39:50.316Z,10.97
2018-11-10T02:42:18.941Z,10.10
2018-11-10T02:44:47.601Z,10.03
2018-11-10T02:47:16.258Z,11.10
2018-11-10T02:49:44.842Z,10.73
2018-11-10T02:52:13.552Z,9.47
2018-11-10T02:57:32.559Z,9.37
2018-11-10T03:00:01.168Z,9.37
2018-11-10T03:02:29.833Z,8.00
2018-11-10T03:04:58.472Z,8.90
2018-11-10T03:07:27.127Z,8.30
2018-11-10T03:09:55.827Z,8.20
2018-11-10T03:12:24.435Z,8.77
2018-11-10T03:14:53.111Z,7.87
2018-11-10T03:17:21.733Z,8.10
2018-11-10T03:19:50.447Z,7.40
2018-11-10T03:22:19.032Z,7.80
2018-11-10T03:24:47.660Z,6.90
2018-11-10T03:27:16.277Z,7.30
2018-11-10T03:29:44.903Z,6.80
2018-11-10T03:32:13.524Z,7.20
2018-11-10T03:34:42.120Z,6.13
2018-11-10T03:37:10.750Z,7.77
2018-11-10T03:39:39.403Z,6.47
2018-11-10T03:42:08.019Z,8.23
2018-11-10T03:44:36.671Z,6.50
2018-11-10T03:47:05.367Z,6.67
2018-11-10T03:49:34.012Z,6.60
2018-11-10T03:52:02.616Z,8.00
2018-11-10T03:54:31.264Z,7.93
2018-11-10T03:56:59.860Z,7.70
2018-11-10T03:59:28.547Z,7.20
2018-11-10T04:01:57.152Z,6.00
2018-11-10T04:04:25.764Z,6.00
2018-11-10T04:06:54.412Z,6.83
2018-11-10T04:09:23.079Z,5.60
2018-11-10T04:11:51.659Z,6.20
2018-11-10T04:14:20.413Z,5.63
2018-11-10T04:16:49.112Z,6.13
2018-11-10T04:19:17.728Z,6.20
2018-11-10T04:21:46.368Z,6.90
2018-11-10T04:24:15.000Z,6.27
2018-11-10T04:26:43.628Z,6.10
2018-11-10T04:29:12.275Z,6.50
2018-11-10T04:31:40.916Z,6.60
2018-11-10T04:34:09.511Z,7.30
2018-11-10T04:36:38.163Z,6.30
2018-11-10T04:39:07.902Z,6.00
2018-11-10T04:41:36.644Z,7.43
2018-11-10T04:44:05.336Z,6.50
2018-11-10T04:46:33.920Z,6.60
2018-11-10T04:49:02.542Z,8.20
2018-11-10T04:51:31.164Z,7.30
2018-11-10T04:53:59.920Z,7.30
2018-11-10T04:56:28.545Z,7.27
2018-11-10T04:58:57.168Z,7.40
2018-11-10T05:01:25.840Z,7.30
2018-11-10T05:03:54.465Z,7.50
2018-11-10T05:06:23.071Z,7.70
2018-11-10T05:08:51.748Z,7.20
2018-11-10T05:11:20.390Z,7.90
2018-11-10T05:13:49.022Z,7.40
2018-11-10T05:16:17.656Z,7.83
2018-11-10T05:18:46.312Z,7.33
2018-11-10T05:21:14.907Z,6.40
2018-11-10T05:23:43.530Z,7.23
2018-11-10T05:26:12.132Z,7.57
2018-11-10T05:28:40.785Z,6.63
2018-11-10T05:31:09.498Z,6.73
2018-11-10T05:33:38.083Z,7.13
2018-11-10T05:36:06.695Z,6.60
2018-11-10T05:38:35.312Z,6.33
2018-11-10T05:41:03.935Z,6.30
2018-11-10T05:43:32.611Z,6.37
2018-11-10T05:46:01.243Z,6.63
2018-11-10T05:48:29.938Z,5.77
2018-11-10T05:50:58.544Z,5.63
2018-11-10T05:53:27.179Z,6.73
2018-11-10T05:55:55.816Z,6.70
2018-11-10T05:58:24.456Z,6.23
2018-11-10T06:00:53.076Z,6.43
2018-11-10T06:03:21.784Z,6.20
2018-11-10T06:05:50.340Z,6.70
2018-11-10T06:08:18.983Z,6.07
2018-11-10T06:10:47.617Z,6.40
2018-11-10T06:13:16.231Z,7.13
2018-11-10T06:15:44.864Z,6.20
2018-11-10T06:18:13.490Z,7.03
2018-11-10T06:20:42.119Z,6.50
2018-11-10T06:23:10.748Z,6.57
2018-11-10T06:25:39.364Z,7.00
2018-11-10T06:28:08.380Z,6.17
2018-11-10T06:30:37.046Z,7.33
2018-11-10T06:33:06.258Z,6.43
2018-11-10T06:35:34.932Z,6.47
2018-11-10T06:38:03.587Z,7.20
2018-11-10T06:40:32.224Z,6.63
2018-11-10T06:43:00.863Z,7.67
2018-11-10T06:45:29.480Z,6.67
2018-11-10T06:47:58.136Z,6.50
2018-11-10T06:50:26.764Z,6.80
2018-11-10T06:52:55.448Z,7.03
2018-11-10T06:55:24.091Z,7.27
2018-11-10T06:57:52.756Z,7.33
2018-11-10T07:00:21.413Z,7.10
2018-11-10T07:02:50.133Z,7.57
2018-11-10T07:05:18.752Z,6.67
2018-11-10T07:07:47.396Z,7.00
2018-11-10T07:10:16.052Z,6.47
2018-11-10T07:12:44.655Z,7.47
2018-11-10T07:15:13.334Z,7.77
2018-11-10T07:17:42.015Z,7.37
2018-11-10T07:20:10.644Z,7.97
2018-11-10T07:22:39.266Z,7.47
2018-11-10T07:25:08.362Z,8.13
2018-11-10T07:27:36.909Z,5.97
2018-11-10T07:30:08.168Z,5.87
2018-11-10T07:32:36.826Z,6.20
2018-11-10T07:35:06.410Z,6.67
2018-11-10T07:37:35.057Z,6.37
2018-11-10T07:40:03.727Z,5.80
2018-11-10T07:42:32.344Z,5.80
2018-11-10T07:45:00.980Z,6.80
2018-11-10T07:47:29.579Z,6.60
2018-11-10T07:49:58.203Z,6.13
2018-11-10T07:52:26.838Z,5.97
2018-11-10T07:54:55.545Z,5.90
2018-11-10T07:57:24.196Z,6.43
2018-11-10T07:59:52.820Z,5.93
2018-11-10T08:02:21.465Z,5.23
2018-11-10T08:04:50.126Z,5.00
2018-11-10T08:07:18.720Z,5.13
2018-11-10T08:09:47.373Z,5.27
2018-11-10T08:12:15.987Z,5.00
2018-11-10T08:14:44.615Z,4.90
2018-11-10T08:17:13.214Z,4.87
2018-11-10T08:19:41.877Z,4.20
2018-11-10T08:22:10.483Z,4.00
2018-11-10T08:24:39.119Z,4.60
2018-11-10T08:27:07.721Z,4.60
2018-11-10T08:29:36.315Z,4.10
2018-11-10T08:32:05.007Z,4.40
2018-11-10T08:34:33.851Z,3.73
2018-11-10T08:37:02.502Z,3.20
2018-11-10T08:39:31.107Z,3.50
2018-11-10T08:41:59.824Z,3.43
2018-11-10T08:44:28.457Z,3.40
2018-11-10T08:46:57.114Z,3.50
2018-11-10T08:49:25.851Z,3.43
2018-11-10T08:51:54.728Z,3.33
2018-11-10T08:54:23.377Z,2.80
2018-11-10T08:59:32.906Z,2.27
2018-11-10T09:02:01.523Z,2.30
2018-11-10T09:04:30.195Z,2.90
2018-11-10T09:06:58.837Z,2.37
2018-11-10T09:09:27.452Z,2.90
2018-11-10T09:11:56.100Z,2.80
2018-11-10T09:14:24.752Z,2.50
2018-11-10T09:16:53.494Z,3.50
2018-11-10T09:19:22.116Z,3.60
2018-11-10T09:21:50.782Z,2.60
2018-11-10T09:24:19.431Z,3.17
2018-11-10T09:26:48.112Z,3.50
2018-11-10T09:29:16.723Z,2.97
2018-11-10T09:31:45.490Z,2.30
2018-11-10T09:34:14.086Z,3.43
2018-11-10T09:36:42.712Z,3.40
2018-11-10T09:39:11.329Z,2.93
2018-11-10T09:41:39.988Z,3.83
2018-11-10T09:44:08.663Z,3.30
2018-11-10T09:46:37.291Z,3.40
2018-11-10T09:49:06.408Z,3.87
2018-11-10T09:51:35.023Z,3.40
2018-11-10T09:54:03.766Z,4.27
2018-11-10T09:56:32.364Z,4.10
2018-11-10T09:59:01.029Z,4.67
2018-11-10T10:01:29.761Z,4.20
2018-11-10T10:03:58.551Z,4.40
2018-11-10T10:06:27.183Z,4.20
2018-11-10T10:08:55.954Z,4.60
2018-11-10T10:11:25.103Z,4.60
2018-11-10T10:13:53.776Z,4.80
2018-11-10T10:16:22.589Z,4.77
2018-11-10T10:18:51.100Z,4.40
2018-11-10T10:21:19.756Z,5.00
2018-11-10T10:23:48.379Z,5.80
2018-11-10T10:26:16.987Z,5.40
2018-11-10T10:28:45.650Z,5.60
2018-11-10T10:31:14.261Z,5.87
2018-11-10T10:33:42.961Z,5.60
2018-11-10T10:36:11.603Z,5.33
2018-11-10T10:38:40.236Z,6.03
2018-11-10T10:41:08.892Z,6.03
2018-11-10T10:43:37.536Z,5.27
2018-11-10T10:46:06.215Z,4.90
2018-11-10T10:48:34.958Z,6.00
2018-11-10T10:51:03.552Z,5.47
2018-11-10T10:53:32.193Z,5.00
2018-11-10T10:56:00.866Z,4.93
2018-11-10T10:58:29.498Z,4.40
2018-11-10T11:01:03.317Z,4.50
2018-11-10T11:03:37.299Z,5.20
2018-11-10T11:06:06.015Z,5.23
2018-11-10T11:08:34.655Z,5.03
2018-11-10T11:11:03.335Z,5.03
2018-11-10T11:13:31.980Z,4.77
2018-11-10T11:16:00.632Z,4.50
2018-11-10T11:18:29.262Z,4.87
2018-11-10T11:20:57.930Z,4.57
2018-11-10T11:23:26.588Z,5.33
2018-11-10T11:25:55.204Z,4.90
2018-11-10T11:28:23.828Z,4.70
2018-11-10T11:30:52.447Z,4.17
2018-11-10T11:33:21.088Z,4.60
2018-11-10T11:35:49.729Z,4.40
2018-11-10T11:38:18.331Z,4.97
2018-11-10T11:40:46.960Z,4.40
2018-11-10T11:43:15.623Z,4.33
2018-11-10T11:45:44.256Z,4.50
2018-11-10T11:48:12.865Z,3.90
2018-11-10T11:50:41.503Z,4.50
2018-11-10T11:53:10.175Z,3.30
2018-11-10T11:55:38.924Z,3.87
2018-11-10T11:58:07.751Z,3.30
2018-11-10T12:00:36.262Z,3.53
2018-11-10T12:03:05.091Z,4.07
2018-11-10T12:05:33.745Z,2.73
2018-11-10T12:08:02.388Z,3.80
2018-11-10T12:10:31.068Z,2.70
2018-11-10T12:12:59.707Z,4.07
2018-11-10T12:15:28.392Z,3.23
2018-11-10T12:17:57.032Z,3.27
2018-11-10T12:20:25.648Z,3.30
2018-11-10T12:22:54.297Z,4.07
2018-11-10T12:25:22.924Z,3.80
2018-11-10T12:27:51.555Z,3.40
2018-11-10T12:30:20.211Z,3.33
2018-11-10T12:32:48.941Z,3.37
2018-11-10T12:35:17.580Z,3.70
2018-11-10T12:37:46.216Z,3.47
2018-11-10T12:40:15.007Z,4.03
2018-11-10T12:42:43.763Z,3.27
2018-11-10T12:45:13.500Z,3.90
2018-11-10T12:47:42.832Z,3.47
2018-11-10T12:50:12.960Z,3.33
2018-11-10T12:52:42.731Z,3.77
2018-11-10T12:55:12.600Z,3.70
2018-11-10T12:57:41.836Z,4.50
2018-11-10T13:00:11.819Z,3.93
2018-11-10T13:02:40.436Z,3.70
2018-11-10T13:05:10.393Z,4.00
2018-11-10T13:07:39.329Z,3.27
2018-11-10T13:10:08.487Z,3.47
2018-11-10T13:12:37.104Z,3.40
2018-11-10T13:15:06.278Z,3.80
2018-11-10T13:17:34.997Z,3.63
2018-11-10T13:20:03.710Z,3.37
2018-11-10T13:22:32.326Z,3.93
2018-11-10T13:25:00.968Z,3.13
2018-11-10T13:27:29.579Z,3.83
2018-11-10T13:29:58.221Z,3.70
2018-11-10T13:32:26.883Z,2.73
2018-11-10T13:34:55.461Z,2.83
2018-11-10T13:37:24.231Z,2.77
2018-11-10T13:39:52.878Z,4.20
2018-11-10T13:42:21.518Z,4.57
2018-11-10T13:44:50.201Z,3.77
2018-11-10T13:47:18.823Z,2.93
2018-11-10T13:49:47.459Z,2.40
2018-11-10T13:52:16.519Z,2.70
2018-11-10T13:54:44.847Z,2.53
2018-11-10T13:57:13.479Z,2.30
2018-11-10T13:59:42.152Z,2.20
2018-11-10T14:02:10.828Z,1.90
2018-11-10T14:04:39.516Z,2.07
2018-11-10T14:07:08.151Z,1.90
2018-11-10T14:09:36.797Z,1.90
2018-11-10T14:12:05.636Z,2.83
2018-11-10T14:14:34.232Z,2.23
2018-11-10T14:17:02.912Z,2.33
2018-11-10T14:19:31.555Z,1.67
2018-11-10T14:22:00.193Z,2.00
2018-11-10T14:24:28.805Z,1.70
2018-11-10T14:26:57.461Z,2.03
2018-11-10T14:29:26.053Z,1.60
2018-11-10T14:31:54.687Z,1.40
2018-11-10T14:34:23.313Z,1.63
2018-11-10T14:36:51.978Z,1.40
2018-11-10T14:39:20.591Z,1.33
2018-11-10T14:41:49.231Z,2.30
2018-11-10T14:44:18.928Z,1.67
2018-11-10T14:46:47.455Z,1.53
2018-11-10T14:49:16.056Z,1.30
2018-11-10T14:51:44.704Z,1.50
2018-11-10T14:54:13.316Z,1.20
2018-11-10T14:56:42.039Z,1.30
2018-11-10T14:59:10.651Z,1.60
2018-11-10T15:01:39.720Z,1.40
2018-11-10T15:04:08.352Z,1.63
2018-11-10T15:06:36.975Z,1.53
2018-11-10T15:09:07.228Z,1.60
2018-11-10T15:11:35.971Z,1.63
2018-11-10T15:14:04.674Z,1.17
2018-11-10T15:16:33.312Z,1.03
2018-11-10T15:19:02.031Z,1.20
2018-11-10T15:21:30.706Z,0.80
2018-11-10T15:23:59.347Z,0.60
2018-11-10T15:26:27.987Z,0.60
2018-11-10T15:28:56.600Z,0.60
2018-11-10T15:31:25.208Z,0.60
2018-11-10T15:33:53.828Z,0.60
2018-11-10T15:36:22.532Z,0.50
2018-11-10T15:38:51.172Z,0.70
2018-11-10T15:41:19.799Z,0.73
2018-11-10T15:43:48.423Z,0.43
2018-11-10T15:46:17.024Z,0.87
2018-11-10T15:48:45.679Z,0.60
2018-11-10T15:51:14.316Z,0.70
2018-11-10T15:53:42.983Z,0.60
2018-11-10T15:56:11.638Z,0.60
2018-11-10T15:58:40.254Z,0.37
2018-11-10T16:01:08.894Z,0.50
2018-11-10T16:03:37.541Z,0.70
2018-11-10T16:06:06.196Z,0.60
2018-11-10T16:08:34.840Z,0.50
2018-11-10T16:11:03.478Z,0.63
2018-11-10T16:13:32.218Z,0.60
2018-11-10T16:16:00.840Z,1.17
2018-11-10T16:18:29.525Z,0.97
2018-11-10T16:20:58.249Z,1.17
2018-11-10T16:23:27.447Z,1.03
2018-11-10T16:25:56.069Z,1.10
2018-11-10T16:28:24.733Z,0.80
2018-11-10T16:30:53.311Z,0.90
2018-11-10T16:33:21.935Z,1.20
2018-11-10T16:35:50.568Z,1.80
2018-11-10T16:38:19.182Z,1.30
2018-11-10T16:40:47.794Z,1.33
2018-11-10T16:43:16.423Z,1.50
2018-11-10T16:45:45.036Z,0.90
2018-11-10T16:48:13.680Z,1.03
2018-11-10T16:50:42.307Z,1.13
2018-11-10T16:53:11.003Z,1.00
2018-11-10T16:55:39.618Z,1.23
2018-11-10T16:58:08.269Z,0.93
2018-11-10T17:00:36.928Z,1.17
2018-11-10T17:03:05.951Z,1.10
2018-11-10T17:05:34.559Z,1.40
2018-11-10T17:08:03.239Z,1.40
2018-11-10T17:10:31.900Z,1.33
2018-11-10T17:13:00.519Z,1.37
2018-11-10T17:15:29.205Z,1.40
2018-11-10T17:17:57.779Z,1.13
2018-11-10T17:20:26.398Z,1.37
2018-11-10T17:22:55.015Z,1.80
2018-11-10T17:25:23.669Z,1.20
2018-11-10T17:27:52.329Z,1.33
2018-11-10T17:30:21.545Z,1.20
2018-11-10T17:32:50.139Z,2.07
2018-11-10T17:35:18.795Z,1.10
2018-11-10T17:37:47.475Z,1.60
2018-11-10T17:40:16.379Z,1.53
2018-11-10T17:42:44.968Z,1.37
2018-11-10T17:45:16.783Z,1.17
2018-11-10T17:47:45.517Z,1.47
2018-11-10T17:50:15.479Z,1.73
2018-11-10T17:52:44.143Z,1.60
2018-11-10T17:55:13.776Z,1.90
2018-11-10T17:57:42.890Z,2.33
2018-11-10T18:00:11.615Z,1.87
2018-11-10T18:02:40.203Z,1.63
2018-11-10T18:05:10.996Z,1.60
2018-11-10T18:07:39.615Z,1.83
2018-11-10T18:10:14.928Z,1.60
2018-11-10T18:12:44.245Z,1.50
2018-11-10T18:15:13.450Z,1.67
2018-11-10T18:17:42.309Z,1.63
2018-11-10T18:20:12.405Z,1.50
2018-11-10T18:22:41.058Z,2.17
2018-11-10T18:25:09.736Z,1.87
2018-11-10T18:27:38.336Z,1.80
2018-11-10T18:30:08.658Z,1.50
2018-11-10T18:32:37.341Z,1.90
2018-11-10T18:35:07.068Z,2.10
2018-11-10T18:37:35.895Z,1.77
2018-11-10T18:40:04.869Z,2.33
2018-11-10T18:42:33.436Z,1.80
2018-11-10T18:45:02.163Z,1.90
2018-11-10T18:47:30.804Z,1.70
2018-11-10T18:49:59.407Z,1.67
2018-11-10T18:52:28.192Z,1.90
2018-11-10T18:54:56.776Z,2.33
2018-11-10T18:57:25.640Z,1.83
2018-11-10T18:59:54.105Z,2.10
2018-11-10T19:02:22.797Z,2.17
2018-11-10T19:04:51.668Z,1.63
2018-11-10T19:07:20.287Z,2.33
2018-11-10T19:09:49.481Z,2.10
2018-11-10T19:12:18.119Z,2.40
2018-11-10T19:14:46.945Z,2.40
2018-11-10T19:17:15.729Z,2.60
2018-11-10T19:19:44.667Z,2.63
2018-11-10T19:22:13.375Z,2.97
2018-11-10T19:24:42.210Z,2.90
2018-11-10T19:27:10.937Z,2.90
2018-11-10T19:29:39.608Z,3.23
2018-11-10T19:32:08.330Z,3.00
2018-11-10T19:34:40.923Z,2.93
2018-11-10T19:37:09.690Z,3.70
2018-11-10T19:39:38.371Z,3.23
2018-11-10T19:42:07.013Z,3.60
2018-11-10T19:44:36.233Z,3.00
2018-11-10T19:47:04.856Z,3.40
2018-11-10T19:49:33.522Z,3.50
2018-11-10T19:52:02.332Z,3.70
2018-11-10T19:54:30.849Z,3.07
2018-11-10T19:56:59.500Z,4.03
2018-11-10T19:59:28.855Z,3.53
2018-11-10T20:01:57.641Z,3.17
2018-11-10T20:04:26.303Z,4.00
2018-11-10T20:06:55.070Z,3.40
2018-11-10T20:09:23.689Z,2.60
2018-11-10T20:11:52.368Z,3.30
2018-11-10T20:14:21.033Z,3.53
2018-11-10T20:16:49.629Z,3.37
2018-11-10T20:19:18.284Z,3.77
2018-11-10T20:21:47.381Z,3.50
2018-11-10T20:24:16.009Z,3.57
2018-11-10T20:26:44.710Z,3.63
2018-11-10T20:29:13.348Z,3.57
2018-11-10T20:31:42.070Z,4.27
2018-11-10T20:34:10.755Z,3.80
2018-11-10T20:36:42.453Z,3.73
2018-11-10T20:39:11.660Z,3.60
2018-11-10T20:41:40.825Z,3.83
2018-11-10T20:44:09.528Z,3.90
2018-11-10T20:46:38.192Z,3.70
2018-11-10T20:49:06.853Z,4.20
2018-11-10T20:51:35.528Z,4.17
2018-11-10T20:54:04.254Z,3.80
2018-11-10T20:56:32.896Z,3.83
2018-11-10T20:59:01.511Z,3.60
2018-11-10T21:01:30.195Z,4.50
2018-11-10T21:03:58.876Z,4.70
2018-11-10T21:06:27.529Z,4.63
2018-11-10T21:08:56.217Z,4.70
2018-11-10T21:11:24.915Z,4.57
2018-11-10T21:13:53.569Z,4.30
2018-11-10T21:16:22.220Z,4.97
2018-11-10T21:18:50.840Z,4.60
2018-11-10T21:21:19.480Z,6.30
2018-11-10T21:23:48.088Z,4.90
2018-11-10T21:26:16.708Z,4.60
2018-11-10T21:28:45.549Z,4.77
2018-11-10T21:31:14.163Z,4.40
2018-11-10T21:33:42.875Z,4.77
2018-11-10T21:36:11.675Z,4.37
2018-11-10T21:38:40.343Z,4.67
2018-11-10T21:41:08.931Z,5.40
2018-11-10T21:43:37.595Z,3.70
2018-11-10T21:46:06.483Z,3.60
2018-11-10T21:48:35.151Z,3.70
2018-11-10T21:51:03.843Z,3.90
2018-11-10T21:53:32.476Z,3.40
2018-11-10T21:56:01.100Z,3.17
2018-11-10T21:58:29.762Z,2.67
2018-11-10T22:00:58.416Z,3.00
2018-11-10T22:03:27.057Z,2.97
2018-11-10T22:05:55.724Z,2.73
2018-11-10T22:08:24.370Z,2.47
2018-11-10T22:10:53.058Z,2.77
2018-11-10T22:13:21.796Z,2.70
2018-11-10T22:15:50.492Z,3.00
2018-11-10T22:18:19.116Z,2.73
2018-11-10T22:20:47.866Z,2.93
2018-11-10T22:23:16.501Z,2.97
2018-11-10T22:25:45.172Z,2.57
2018-11-10T22:28:13.825Z,2.53
2018-11-10T22:30:42.487Z,2.27
2018-11-10T22:33:11.149Z,2.20
2018-11-10T22:35:39.825Z,2.30
2018-11-10T22:38:08.664Z,2.10
2018-11-10T22:40:37.325Z,2.20
2018-11-10T22:43:06.298Z,1.87
2018-11-10T22:45:34.913Z,2.13
2018-11-10T22:48:03.717Z,2.00
2018-11-10T22:50:32.218Z,2.33
2018-11-10T22:53:00.899Z,2.00
2018-11-10T22:55:29.568Z,2.50
2018-11-10T22:57:58.208Z,2.20
2018-11-10T23:00:28.116Z,2.00
2018-11-10T23:02:58.125Z,1.97
2018-11-10T23:05:26.925Z,2.40
2018-11-10T23:07:55.571Z,2.17
2018-11-10T23:10:24.245Z,2.20
2018-11-10T23:12:53.988Z,1.97
2018-11-10T23:15:22.689Z,1.47
2018-11-10T23:17:51.428Z,2.07
2018-11-10T23:20:20.337Z,1.80
2018-11-10T23:22:49.047Z,2.27
2018-11-10T23:25:18.377Z,1.70
2018-11-10T23:27:49.478Z,1.70
2018-11-10T23:30:19.741Z,1.90
2018-11-10T23:32:48.354Z,1.87
2018-11-10T23:35:16.976Z,2.03
2018-11-10T23:37:45.680Z,1.63
2018-11-10T23:40:17.429Z,1.83
2018-11-10T23:42:46.183Z,2.10
2018-11-10T23:45:15.350Z,1.80
2018-11-10T23:47:44.020Z,1.57
2018-11-10T23:50:14.966Z,1.70
2018-11-10T23:52:43.656Z,2.77
2018-11-10T23:55:14.545Z,1.40
2018-11-10T23:57:43.237Z,1.77
